createdAt,value
2022-12-03T00:02:31.333Z,41.10
2022-12-03T00:05:33.860Z,40.00
2022-12-03T00:08:36.123Z,39.83
2022-12-03T00:11:38.556Z,45.17
2022-12-03T00:14:44.603Z,43.58
2022-12-03T00:17:47.415Z,38.95
2022-12-03T00:20:49.480Z,40.17
2022-12-03T00:23:51.877Z,37.03
2022-12-03T00:26:53.944Z,42.17
2022-12-03T00:29:56.300Z,42.62
2022-12-03T00:32:58.378Z,43.60
2022-12-03T00:36:00.718Z,47.17
2022-12-03T00:39:02.912Z,42.53
2022-12-03T00:42:05.538Z,46.88
2022-12-03T00:45:07.986Z,44.78
2022-12-03T00:48:10.328Z,45.67
2022-12-03T00:51:12.392Z,44.40
2022-12-03T00:54:15.176Z,42.30
2022-12-03T00:57:17.298Z,41.95
2022-12-03T01:00:24.502Z,44.88
2022-12-03T01:03:26.854Z,42.08
2022-12-03T01:06:29.284Z,42.90
2022-12-03T01:09:31.497Z,48.42
2022-12-03T01:12:33.929Z,45.38
2022-12-03T01:15:36.122Z,48.58
2022-12-03T01:18:38.550Z,48.47
2022-12-03T01:21:40.675Z,47.22
2022-12-03T01:24:43.017Z,47.13
2022-12-03T01:27:45.107Z,47.08
2022-12-03T01:31:06.181Z,45.08
2022-12-03T01:34:08.317Z,43.80
2022-12-03T01:37:10.723Z,45.12
2022-12-03T01:40:16.412Z,44.38
2022-12-03T01:43:18.838Z,44.33
2022-12-03T01:46:23.627Z,42.97
2022-12-03T01:49:40.788Z,49.10
2022-12-03T01:52:44.188Z,48.15
2022-12-03T01:55:48.893Z,44.13
2022-12-03T01:58:51.298Z,45.10
2022-12-03T02:01:53.705Z,45.28
2022-12-03T02:04:57.216Z,45.42
2022-12-03T02:08:01.055Z,48.70
2022-12-03T02:11:14.273Z,45.20
2022-12-03T02:14:20.203Z,44.03
2022-12-03T02:17:22.417Z,49.72
2022-12-03T02:20:24.834Z,50.12
2022-12-03T02:23:32.104Z,45.17
2022-12-03T02:26:34.584Z,48.08
2022-12-03T02:29:36.874Z,49.50
2022-12-03T02:32:39.943Z,46.60
2022-12-03T02:35:42.161Z,42.53
2022-12-03T02:38:48.096Z,46.67
2022-12-03T02:42:08.837Z,47.92
2022-12-03T02:45:11.600Z,40.20
2022-12-03T02:48:21.141Z,44.47
2022-12-03T02:51:23.799Z,39.47
2022-12-03T02:54:25.993Z,42.88
2022-12-03T02:57:28.412Z,43.65
2022-12-03T03:00:30.969Z,42.90
2022-12-03T03:03:33.746Z,43.10
2022-12-03T03:06:35.965Z,44.28
2022-12-03T03:09:38.584Z,42.13
2022-12-03T03:12:41.454Z,44.70
2022-12-03T03:15:45.410Z,50.40
2022-12-03T03:18:48.681Z,43.53
2022-12-03T03:21:51.588Z,44.08
2022-12-03T03:24:54.004Z,45.90
2022-12-03T03:27:56.663Z,44.40
2022-12-03T03:31:02.493Z,43.67
2022-12-03T03:34:05.344Z,42.38
2022-12-03T03:37:07.486Z,45.12
2022-12-03T03:40:10.534Z,45.95
2022-12-03T03:43:13.695Z,42.35
2022-12-03T03:46:17.590Z,45.85
2022-12-03T03:49:20.113Z,46.70
2022-12-03T03:52:23.123Z,42.67
2022-12-03T03:55:25.528Z,42.20
2022-12-03T03:58:27.973Z,41.75
2022-12-03T04:01:30.984Z,42.88
2022-12-03T04:04:36.565Z,44.10
2022-12-03T04:07:38.871Z,40.95
2022-12-03T04:11:00.080Z,42.85
2022-12-03T04:14:02.690Z,46.30
2022-12-03T04:17:05.110Z,45.67
2022-12-03T04:20:07.420Z,44.17
2022-12-03T04:23:10.428Z,41.97
2022-12-03T04:26:30.925Z,47.35
2022-12-03T04:29:33.349Z,45.03
2022-12-03T04:32:54.383Z,48.60
2022-12-03T04:38:58.710Z,44.42
2022-12-03T04:42:01.668Z,42.55
2022-12-03T04:45:03.974Z,45.72
2022-12-03T04:48:06.405Z,45.58
2022-12-03T04:51:08.528Z,51.45
2022-12-03T04:54:11.006Z,49.97
2022-12-03T04:57:13.245Z,50.00
2022-12-03T05:00:16.103Z,46.70
2022-12-03T05:03:18.251Z,48.75
2022-12-03T05:06:20.616Z,47.33
2022-12-03T05:09:23.200Z,50.63
2022-12-03T05:12:25.592Z,47.42
2022-12-03T05:15:27.681Z,51.37
2022-12-03T05:18:30.053Z,51.45
2022-12-03T05:21:32.272Z,48.38
2022-12-03T05:24:34.600Z,50.78
2022-12-03T05:27:36.973Z,48.85
2022-12-03T05:30:39.494Z,49.95
2022-12-03T05:33:44.379Z,52.97
2022-12-03T05:36:46.941Z,47.08
2022-12-03T05:39:49.058Z,46.08
2022-12-03T05:42:54.073Z,45.67
2022-12-03T05:45:56.197Z,47.97
2022-12-03T05:48:58.660Z,45.20
2022-12-03T05:52:00.739Z,45.08
2022-12-03T05:55:04.404Z,46.15
2022-12-03T05:58:06.519Z,46.60
2022-12-03T06:01:08.891Z,46.60
2022-12-03T06:04:11.309Z,41.95
2022-12-03T06:07:14.334Z,46.65
2022-12-03T06:10:20.880Z,42.90
2022-12-03T06:13:22.978Z,44.75
2022-12-03T06:16:25.480Z,42.85
2022-12-03T06:19:27.717Z,43.42
2022-12-03T06:22:30.099Z,43.28
2022-12-03T06:25:32.508Z,42.00
2022-12-03T06:28:36.730Z,44.78
2022-12-03T06:31:38.890Z,45.78
2022-12-03T06:34:41.391Z,45.72
2022-12-03T06:37:43.506Z,46.45
2022-12-03T06:40:45.877Z,42.33
2022-12-03T06:43:47.953Z,43.78
2022-12-03T06:46:50.420Z,45.75
2022-12-03T06:49:52.583Z,44.53
2022-12-03T06:52:54.972Z,43.60
2022-12-03T06:55:57.232Z,47.92
2022-12-03T06:58:59.777Z,44.58
2022-12-03T07:02:01.910Z,43.47
2022-12-03T07:05:04.830Z,43.92
2022-12-03T07:08:07.081Z,42.17
2022-12-03T07:11:29.496Z,46.30
2022-12-03T07:14:31.636Z,47.50
2022-12-03T07:17:34.091Z,45.20
2022-12-03T07:20:36.280Z,46.53
2022-12-03T07:23:38.968Z,45.25
2022-12-03T07:26:41.115Z,49.10
2022-12-03T07:29:43.478Z,48.25
2022-12-03T07:32:45.640Z,44.17
2022-12-03T07:35:47.959Z,44.38
2022-12-03T07:38:50.157Z,42.95
2022-12-03T07:41:52.617Z,43.80
2022-12-03T07:44:55.060Z,45.60
2022-12-03T07:47:57.667Z,44.42
2022-12-03T07:50:59.854Z,49.05
2022-12-03T07:54:02.316Z,47.60
2022-12-03T07:57:04.487Z,44.85
2022-12-03T08:00:07.514Z,47.75
2022-12-03T08:03:11.001Z,47.53
2022-12-03T08:06:13.198Z,47.45
2022-12-03T08:09:16.423Z,45.90
2022-12-03T08:12:39.922Z,48.63
2022-12-03T08:15:43.077Z,48.83
2022-12-03T08:18:46.775Z,47.30
2022-12-03T08:21:49.125Z,47.55
2022-12-03T08:24:51.436Z,47.15
2022-12-03T08:28:02.668Z,47.40
2022-12-03T08:31:18.304Z,50.65
2022-12-03T08:34:34.091Z,47.22
2022-12-03T08:37:36.226Z,46.70
2022-12-03T08:40:43.552Z,47.78
2022-12-03T08:43:46.359Z,51.22
2022-12-03T08:47:08.871Z,46.70
2022-12-03T08:50:29.146Z,44.97
2022-12-03T08:53:47.700Z,53.17
2022-12-03T08:56:49.812Z,46.10
2022-12-03T09:00:04.068Z,44.88
2022-12-03T09:03:15.802Z,45.30
2022-12-03T09:06:18.477Z,42.28
2022-12-03T09:09:21.476Z,42.90
2022-12-03T09:12:23.885Z,44.13
2022-12-03T09:15:26.026Z,46.65
2022-12-03T09:18:28.377Z,45.15
2022-12-03T09:21:30.435Z,40.40
2022-12-03T09:24:32.792Z,45.83
2022-12-03T09:27:34.886Z,43.30
2022-12-03T09:30:37.283Z,42.58
2022-12-03T09:33:39.532Z,45.95
2022-12-03T09:36:41.887Z,43.45
2022-12-03T09:39:43.959Z,45.00
2022-12-03T09:42:46.669Z,40.78
2022-12-03T09:45:49.559Z,46.63
2022-12-03T09:48:52.233Z,42.40
2022-12-03T09:52:00.735Z,40.22
2022-12-03T09:55:15.559Z,42.38
2022-12-03T09:58:19.054Z,39.38
2022-12-03T10:01:21.893Z,41.58
2022-12-03T10:04:24.787Z,40.28
2022-12-03T10:07:27.046Z,39.47
2022-12-03T10:10:29.506Z,39.35
2022-12-03T10:13:32.555Z,40.25
2022-12-03T10:16:35.992Z,40.78
2022-12-03T10:19:39.653Z,36.63
2022-12-03T10:22:42.131Z,38.22
2022-12-03T10:25:52.571Z,37.67
2022-12-03T10:28:56.752Z,39.45
2022-12-03T10:32:05.662Z,38.00
2022-12-03T10:35:20.802Z,37.03
2022-12-03T10:38:23.375Z,38.10
2022-12-03T10:41:27.943Z,35.30
2022-12-03T10:44:30.587Z,36.17
2022-12-03T10:47:33.159Z,36.13
2022-12-03T10:50:35.990Z,36.83
2022-12-03T10:53:40.542Z,36.25
2022-12-03T10:56:43.652Z,35.97
2022-12-03T10:59:46.640Z,32.80
2022-12-03T11:02:54.939Z,33.40
2022-12-03T11:06:00.921Z,34.35
2022-12-03T11:09:08.865Z,35.35
2022-12-03T11:12:23.533Z,30.52
2022-12-03T11:15:43.697Z,27.87
2022-12-03T11:18:59.142Z,30.30
2022-12-03T11:22:07.194Z,29.40
2022-12-03T11:25:24.554Z,28.85
2022-12-03T11:28:26.552Z,28.40
2022-12-03T11:31:36.046Z,27.62
2022-12-03T11:34:38.261Z,29.15
2022-12-03T11:37:40.920Z,30.10
2022-12-03T11:41:08.605Z,28.48
2022-12-03T11:44:30.027Z,28.60
2022-12-03T11:50:53.336Z,27.80
2022-12-03T11:53:59.073Z,27.65
2022-12-03T11:57:02.541Z,28.87
2022-12-03T12:00:15.878Z,29.52
2022-12-03T12:03:34.893Z,27.10
2022-12-03T12:06:42.637Z,26.65
2022-12-03T12:09:53.687Z,29.67
2022-12-03T12:12:57.277Z,26.83
2022-12-03T12:16:01.754Z,26.15
2022-12-03T12:19:31.985Z,28.05
2022-12-03T12:22:34.530Z,24.08
2022-12-03T12:25:41.578Z,26.65
2022-12-03T12:28:44.017Z,27.60
2022-12-03T12:31:50.779Z,26.35
2022-12-03T12:35:16.224Z,25.95
2022-12-03T12:38:20.829Z,23.65
2022-12-03T12:41:24.138Z,26.55
2022-12-03T12:44:27.356Z,26.10
2022-12-03T12:47:30.139Z,26.37
2022-12-03T12:50:33.218Z,25.08
2022-12-03T12:53:38.814Z,26.45
2022-12-03T12:56:43.754Z,32.28
2022-12-03T12:59:46.104Z,26.48
2022-12-03T13:03:01.127Z,28.38
2022-12-03T13:06:04.043Z,29.23
2022-12-03T13:09:15.481Z,31.83
2022-12-03T13:12:21.873Z,33.33
2022-12-03T13:15:41.550Z,34.03
2022-12-03T13:18:47.386Z,31.52
2022-12-03T13:21:51.038Z,26.40
2022-12-03T13:24:56.133Z,28.80
2022-12-03T13:27:58.229Z,27.35
2022-12-03T13:31:22.349Z,25.05
2022-12-03T13:34:30.870Z,25.12
2022-12-03T13:37:33.753Z,26.60
2022-12-03T13:40:36.138Z,27.95
2022-12-03T13:43:44.385Z,27.80
2022-12-03T13:46:47.216Z,30.42
2022-12-03T13:49:54.039Z,27.30
2022-12-03T13:52:56.989Z,27.23
2022-12-03T13:56:38.158Z,27.98
2022-12-03T13:59:40.382Z,26.35
2022-12-03T14:02:42.955Z,26.40
2022-12-03T14:05:45.382Z,24.33
2022-12-03T14:08:47.481Z,25.80
2022-12-03T14:12:08.395Z,24.37
2022-12-03T14:15:11.358Z,26.37
2022-12-03T14:18:13.696Z,27.05
2022-12-03T14:21:16.002Z,28.58
2022-12-03T14:24:18.340Z,26.27
2022-12-03T14:27:21.397Z,26.77
2022-12-03T14:30:23.738Z,25.08
2022-12-03T14:33:25.797Z,23.48
2022-12-03T14:36:28.147Z,24.42
2022-12-03T14:39:30.253Z,25.58
2022-12-03T14:42:32.660Z,24.80
2022-12-03T14:45:34.857Z,23.55
2022-12-03T14:48:37.253Z,23.67
2022-12-03T14:51:39.350Z,26.17
2022-12-03T14:54:42.761Z,24.37
2022-12-03T14:57:45.093Z,25.25
2022-12-03T15:00:47.661Z,26.27
2022-12-03T15:03:49.884Z,29.15
2022-12-03T15:06:52.313Z,26.15
2022-12-03T15:09:54.720Z,25.60
2022-12-03T15:12:57.242Z,25.27
2022-12-03T15:15:59.520Z,23.45
2022-12-03T15:19:02.029Z,25.70
2022-12-03T15:22:04.297Z,24.63
2022-12-03T15:25:07.672Z,28.15
2022-12-03T15:28:10.158Z,24.50
2022-12-03T15:31:12.517Z,26.95
2022-12-03T15:34:20.346Z,23.87
2022-12-03T15:37:27.615Z,25.40
2022-12-03T15:40:29.787Z,25.62
2022-12-03T15:43:32.190Z,23.50
2022-12-03T15:46:34.393Z,25.37
2022-12-03T15:49:36.796Z,25.27
2022-12-03T15:52:38.955Z,23.92
2022-12-03T15:55:41.408Z,26.62
2022-12-03T15:58:43.930Z,25.62
2022-12-03T16:01:46.312Z,24.55
2022-12-03T16:04:48.870Z,24.83
2022-12-03T16:07:51.098Z,27.33
2022-12-03T16:10:53.871Z,24.98
2022-12-03T16:13:56.231Z,25.62
2022-12-03T16:17:02.155Z,27.73
2022-12-03T16:20:05.468Z,25.67
2022-12-03T16:23:08.189Z,25.20
2022-12-03T16:26:10.241Z,25.27
2022-12-03T16:29:12.627Z,28.40
2022-12-03T16:32:14.717Z,25.65
2022-12-03T16:35:17.230Z,25.95
2022-12-03T16:38:19.312Z,27.95
2022-12-03T16:41:22.621Z,26.05
2022-12-03T16:44:34.038Z,27.80
2022-12-03T16:47:36.601Z,27.48
2022-12-03T16:50:38.718Z,28.40
2022-12-03T16:53:41.218Z,29.15
2022-12-03T16:56:43.347Z,25.80
2022-12-03T16:59:45.900Z,29.90
2022-12-03T17:02:48.681Z,29.23
2022-12-03T17:05:51.098Z,29.73
2022-12-03T17:08:53.211Z,30.67
2022-12-03T17:11:55.598Z,29.92
2022-12-03T17:14:57.679Z,30.35
2022-12-03T17:18:00.514Z,29.33
2022-12-03T17:21:02.654Z,31.75
2022-12-03T17:24:05.174Z,31.15
2022-12-03T17:27:08.036Z,32.53
2022-12-03T17:30:11.050Z,37.13
2022-12-03T17:33:13.181Z,32.67
2022-12-03T17:36:15.526Z,34.42
2022-12-03T17:39:17.697Z,34.72
2022-12-03T17:42:20.041Z,33.22
2022-12-03T17:45:22.108Z,34.88
2022-12-03T17:48:24.513Z,35.25
2022-12-03T17:51:26.598Z,34.33
2022-12-03T17:54:43.477Z,37.80
2022-12-03T17:57:51.180Z,32.67
2022-12-03T18:00:58.595Z,36.63
2022-12-03T18:04:04.718Z,35.00
2022-12-03T18:07:06.910Z,33.78
2022-12-03T18:10:09.547Z,37.13
2022-12-03T18:13:11.686Z,35.65
2022-12-03T18:16:15.513Z,36.03
2022-12-03T18:19:17.710Z,37.97
2022-12-03T18:22:20.509Z,37.58
2022-12-03T18:25:22.602Z,43.28
2022-12-03T18:28:24.985Z,45.70
2022-12-03T18:31:27.130Z,39.38
2022-12-03T18:34:29.509Z,41.30
2022-12-03T18:37:32.168Z,40.12
2022-12-03T18:40:34.621Z,39.95
2022-12-03T18:43:36.698Z,39.28
2022-12-03T18:46:53.492Z,40.12
2022-12-03T18:49:57.805Z,41.63
2022-12-03T18:53:00.399Z,39.30
2022-12-03T18:56:02.936Z,39.35
2022-12-03T18:59:07.402Z,40.85
2022-12-03T19:02:53.844Z,38.35
2022-12-03T19:05:40.108Z,42.73
2022-12-03T19:08:42.971Z,38.60
2022-12-03T19:11:45.366Z,38.83
2022-12-03T19:14:47.482Z,41.00
2022-12-03T19:17:50.317Z,41.97
2022-12-03T19:20:52.474Z,40.20
2022-12-03T19:24:22.632Z,38.28
2022-12-03T19:27:17.362Z,41.88
2022-12-03T19:30:21.988Z,38.75
2022-12-03T19:33:28.423Z,40.40
2022-12-03T19:36:32.248Z,40.00
2022-12-03T19:39:34.696Z,37.78
2022-12-03T19:42:37.103Z,40.10
2022-12-03T19:45:39.245Z,39.42
2022-12-03T19:48:42.217Z,38.85
2022-12-03T19:51:44.388Z,41.63
2022-12-03T19:54:46.748Z,40.28
2022-12-03T19:57:48.864Z,41.58
2022-12-03T20:00:51.259Z,44.05
2022-12-03T20:03:56.192Z,37.42
2022-12-03T20:06:58.322Z,39.38
2022-12-03T20:10:00.688Z,41.50
2022-12-03T20:13:03.257Z,39.13
2022-12-03T20:16:08.638Z,45.40
2022-12-03T20:19:12.841Z,43.22
2022-12-03T20:22:15.225Z,38.90
2022-12-03T20:25:17.380Z,40.10
2022-12-03T20:28:20.095Z,40.00
2022-12-03T20:31:24.491Z,42.35
2022-12-03T20:34:26.932Z,44.85
2022-12-03T20:37:29.222Z,41.35
2022-12-03T20:40:36.420Z,40.83
2022-12-03T20:43:39.139Z,39.10
2022-12-03T20:46:41.612Z,42.88
2022-12-03T20:49:43.825Z,41.45
2022-12-03T20:53:03.581Z,43.97
2022-12-03T20:56:08.624Z,45.88
2022-12-03T20:59:14.447Z,41.05
2022-12-03T21:02:16.738Z,41.08
2022-12-03T21:05:19.291Z,41.88
2022-12-03T21:08:39.877Z,41.37
2022-12-03T21:11:43.146Z,39.88
2022-12-03T21:14:45.341Z,43.28
2022-12-03T21:17:47.785Z,43.67
2022-12-03T21:20:49.960Z,39.17
2022-12-03T21:23:52.802Z,38.70
2022-12-03T21:26:54.893Z,39.67
2022-12-03T21:29:57.538Z,45.20
2022-12-03T21:32:59.895Z,47.03
2022-12-03T21:36:02.755Z,38.53
2022-12-03T21:39:06.057Z,39.28
2022-12-03T21:42:22.328Z,39.95
2022-12-03T21:45:30.819Z,39.65
2022-12-03T21:48:33.723Z,40.45
2022-12-03T21:51:35.797Z,38.97
2022-12-03T21:54:38.264Z,43.42
2022-12-03T21:57:40.403Z,42.25
2022-12-03T22:00:42.791Z,39.67
2022-12-03T22:03:45.649Z,39.50
2022-12-03T22:06:47.764Z,45.47
2022-12-03T22:09:50.115Z,42.20
2022-12-03T22:12:52.209Z,45.60
2022-12-03T22:15:54.636Z,42.33
2022-12-03T22:18:56.751Z,44.45
2022-12-03T22:21:59.164Z,45.25
2022-12-03T22:25:01.272Z,43.08
2022-12-03T22:28:03.801Z,43.70
2022-12-03T22:31:09.985Z,42.45
2022-12-03T22:34:12.726Z,43.97
2022-12-03T22:37:15.037Z,41.25
2022-12-03T22:40:20.648Z,44.35
2022-12-03T22:43:23.365Z,44.30
2022-12-03T22:46:25.817Z,42.85
2022-12-03T22:49:28.097Z,41.33
2022-12-03T22:52:30.518Z,44.25
2022-12-03T22:55:32.849Z,47.53
2022-12-03T22:58:37.869Z,44.47
2022-12-03T23:01:41.177Z,42.80
2022-12-03T23:04:43.872Z,43.33
2022-12-03T23:07:46.015Z,44.45
2022-12-03T23:10:51.259Z,39.92
2022-12-03T23:13:55.269Z,42.35
2022-12-03T23:16:57.798Z,41.60
2022-12-03T23:20:00.151Z,42.53
2022-12-03T23:23:02.538Z,41.85
2022-12-03T23:26:07.524Z,44.05
2022-12-03T23:29:09.949Z,48.10
2022-12-03T23:32:12.154Z,43.03
2022-12-03T23:35:14.647Z,40.63
2022-12-03T23:38:19.726Z,43.65
2022-12-03T23:41:23.484Z,43.28
2022-12-03T23:44:27.487Z,42.22
2022-12-03T23:47:30.041Z,42.00
2022-12-03T23:50:32.099Z,39.22
2022-12-03T23:53:35.485Z,39.17
2022-12-03T23:56:38.129Z,41.30
2022-12-03T23:59:42.025Z,38.30
